sensor_id;sensor_type;location;lat;lon;timestamp;temperature;humidity
44271;DHT22;29963;44.594;11.368;2023-07-29T00:01:08;26.50;99.90
44271;DHT22;29963;44.594;11.368;2023-07-29T00:03:34;26.50;99.90
44271;DHT22;29963;44.594;11.368;2023-07-29T00:05:59;26.50;99.90
44271;DHT22;29963;44.594;11.368;2023-07-29T00:08:25;26.50;99.90
44271;DHT22;29963;44.594;11.368;2023-07-29T00:10:51;26.50;99.90
44271;DHT22;29963;44.594;11.368;2023-07-29T00:13:16;26.50;99.90
44271;DHT22;29963;44.594;11.368;2023-07-29T00:15:42;26.40;99.90
44271;DHT22;29963;44.594;11.368;2023-07-29T00:18:07;26.40;99.90
44271;DHT22;29963;44.594;11.368;2023-07-29T00:20:33;26.40;99.90
44271;DHT22;29963;44.594;11.368;2023-07-29T00:22:58;26.40;99.90
44271;DHT22;29963;44.594;11.368;2023-07-29T00:25:25;26.30;99.90
44271;DHT22;29963;44.594;11.368;2023-07-29T00:27:50;26.30;99.90
44271;DHT22;29963;44.594;11.368;2023-07-29T00:30:16;26.20;99.90
44271;DHT22;29963;44.594;11.368;2023-07-29T00:32:42;26.20;99.90
44271;DHT22;29963;44.594;11.368;2023-07-29T00:35:08;26.20;99.90
44271;DHT22;29963;44.594;11.368;2023-07-29T00:37:33;26.20;99.90
44271;DHT22;29963;44.594;11.368;2023-07-29T00:39:59;26.10;99.90
44271;DHT22;29963;44.594;11.368;2023-07-29T00:42:25;26.00;99.90
44271;DHT22;29963;44.594;11.368;2023-07-29T00:44:50;26.00;99.90
44271;DHT22;29963;44.594;11.368;2023-07-29T00:47:16;25.90;99.90
44271;DHT22;29963;44.594;11.368;2023-07-29T00:49:44;25.90;99.90
44271;DHT22;29963;44.594;11.368;2023-07-29T00:52:10;25.80;99.90
44271;DHT22;29963;44.594;11.368;2023-07-29T00:54:40;25.70;99.90
44271;DHT22;29963;44.594;11.368;2023-07-29T00:57:10;25.70;99.90
44271;DHT22;29963;44.594;11.368;2023-07-29T00:59:37;25.60;99.90
44271;DHT22;29963;44.594;11.368;2023-07-29T01:02:03;25.60;99.90
44271;DHT22;29963;44.594;11.368;2023-07-29T01:04:30;25.60;99.90
44271;DHT22;29963;44.594;11.368;2023-07-29T01:07:25;25.40;99.90
44271;DHT22;29963;44.594;11.368;2023-07-29T01:10:34;25.20;99.90
44271;DHT22;29963;44.594;11.368;2023-07-29T01:12:47;25.20;99.90
44271;DHT22;29963;44.594;11.368;2023-07-29T01:15:29;25.10;99.90
44271;DHT22;29963;44.594;11.368;2023-07-29T01:18:24;25.00;99.90
44271;DHT22;29963;44.594;11.368;2023-07-29T01:20:54;25.10;99.90
44271;DHT22;29963;44.594;11.368;2023-07-29T01:23:40;24.90;99.90
44271;DHT22;29963;44.594;11.368;2023-07-29T01:26:05;25.00;99.90
44271;DHT22;29963;44.594;11.368;2023-07-29T01:28:31;24.90;99.90
44271;DHT22;29963;44.594;11.368;2023-07-29T01:31:10;24.90;99.90
44271;DHT22;29963;44.594;11.368;2023-07-29T01:33:48;24.80;99.90
44271;DHT22;29963;44.594;11.368;2023-07-29T01:36:21;24.60;99.90
44271;DHT22;29963;44.594;11.368;2023-07-29T01:38:49;24.70;99.90
44271;DHT22;29963;44.594;11.368;2023-07-29T01:41:17;24.70;99.90
44271;DHT22;29963;44.594;11.368;2023-07-29T01:43:43;24.70;99.90
44271;DHT22;29963;44.594;11.368;2023-07-29T01:46:15;24.60;99.90
44271;DHT22;29963;44.594;11.368;2023-07-29T01:48:41;24.60;99.90
44271;DHT22;29963;44.594;11.368;2023-07-29T01:51:07;24.60;99.90
44271;DHT22;29963;44.594;11.368;2023-07-29T01:53:33;24.50;99.90
44271;DHT22;29963;44.594;11.368;2023-07-29T01:55:59;24.40;99.90
44271;DHT22;29963;44.594;11.368;2023-07-29T01:58:24;24.30;99.90
44271;DHT22;29963;44.594;11.368;2023-07-29T02:00:50;24.30;99.90
44271;DHT22;29963;44.594;11.368;2023-07-29T02:03:16;24.30;99.90
44271;DHT22;29963;44.594;11.368;2023-07-29T02:05:41;24.30;99.90
44271;DHT22;29963;44.594;11.368;2023-07-29T02:08:09;24.20;99.90
44271;DHT22;29963;44.594;11.368;2023-07-29T02:10:35;24.20;99.90
44271;DHT22;29963;44.594;11.368;2023-07-29T02:13:00;24.30;99.90
44271;DHT22;29963;44.594;11.368;2023-07-29T02:15:26;24.20;99.90
44271;DHT22;29963;44.594;11.368;2023-07-29T02:17:52;24.20;99.90
44271;DHT22;29963;44.594;11.368;2023-07-29T02:20:17;24.30;99.90
44271;DHT22;29963;44.594;11.368;2023-07-29T02:22:43;24.30;99.90
44271;DHT22;29963;44.594;11.368;2023-07-29T02:25:09;24.30;99.90
44271;DHT22;29963;44.594;11.368;2023-07-29T02:27:35;24.20;99.90
44271;DHT22;29963;44.594;11.368;2023-07-29T02:30:01;24.20;99.90
44271;DHT22;29963;44.594;11.368;2023-07-29T02:32:27;24.20;99.90
44271;DHT22;29963;44.594;11.368;2023-07-29T02:34:52;24.20;99.90
44271;DHT22;29963;44.594;11.368;2023-07-29T02:37:18;24.00;99.90
44271;DHT22;29963;44.594;11.368;2023-07-29T02:39:45;24.00;99.90
44271;DHT22;29963;44.594;11.368;2023-07-29T02:42:10;24.10;99.90
44271;DHT22;29963;44.594;11.368;2023-07-29T02:44:36;24.20;99.90
44271;DHT22;29963;44.594;11.368;2023-07-29T02:47:02;24.20;99.90
44271;DHT22;29963;44.594;11.368;2023-07-29T02:49:27;24.20;99.90
44271;DHT22;29963;44.594;11.368;2023-07-29T02:51:53;24.20;99.90
44271;DHT22;29963;44.594;11.368;2023-07-29T02:54:18;24.20;99.90
44271;DHT22;29963;44.594;11.368;2023-07-29T02:56:44;24.20;99.90
44271;DHT22;29963;44.594;11.368;2023-07-29T02:59:09;24.20;99.90
44271;DHT22;29963;44.594;11.368;2023-07-29T03:01:35;24.30;99.90
44271;DHT22;29963;44.594;11.368;2023-07-29T03:04:00;24.30;99.90
44271;DHT22;29963;44.594;11.368;2023-07-29T03:06:26;24.40;99.90
44271;DHT22;29963;44.594;11.368;2023-07-29T03:08:52;24.50;99.90
44271;DHT22;29963;44.594;11.368;2023-07-29T03:11:17;24.60;99.90
44271;DHT22;29963;44.594;11.368;2023-07-29T03:13:43;24.60;99.90
44271;DHT22;29963;44.594;11.368;2023-07-29T03:16:16;24.60;99.90
44271;DHT22;29963;44.594;11.368;2023-07-29T03:18:43;24.50;99.90
44271;DHT22;29963;44.594;11.368;2023-07-29T03:21:09;24.50;99.90
44271;DHT22;29963;44.594;11.368;2023-07-29T03:23:35;24.50;99.90
44271;DHT22;29963;44.594;11.368;2023-07-29T03:26:03;24.40;99.90
44271;DHT22;29963;44.594;11.368;2023-07-29T03:28:36;24.40;99.90
44271;DHT22;29963;44.594;11.368;2023-07-29T03:31:02;24.40;99.90
44271;DHT22;29963;44.594;11.368;2023-07-29T03:33:28;24.40;99.90
44271;DHT22;29963;44.594;11.368;2023-07-29T03:35:54;24.50;99.90
44271;DHT22;29963;44.594;11.368;2023-07-29T03:38:19;24.50;99.90
44271;DHT22;29963;44.594;11.368;2023-07-29T03:40:45;24.40;99.90
44271;DHT22;29963;44.594;11.368;2023-07-29T03:43:11;24.30;99.90
44271;DHT22;29963;44.594;11.368;2023-07-29T03:45:37;24.40;99.90
44271;DHT22;29963;44.594;11.368;2023-07-29T03:48:03;24.30;99.90
44271;DHT22;29963;44.594;11.368;2023-07-29T03:50:29;24.30;99.90
44271;DHT22;29963;44.594;11.368;2023-07-29T03:52:56;24.20;99.90
44271;DHT22;29963;44.594;11.368;2023-07-29T03:55:22;24.20;99.90
44271;DHT22;29963;44.594;11.368;2023-07-29T03:57:47;24.20;99.90
44271;DHT22;29963;44.594;11.368;2023-07-29T04:00:13;24.20;99.90
44271;DHT22;29963;44.594;11.368;2023-07-29T04:02:39;24.20;99.90
44271;DHT22;29963;44.594;11.368;2023-07-29T04:05:06;24.20;99.90
44271;DHT22;29963;44.594;11.368;2023-07-29T04:07:34;24.20;99.90
44271;DHT22;29963;44.594;11.368;2023-07-29T04:10:00;24.10;99.90
44271;DHT22;29963;44.594;11.368;2023-07-29T04:12:26;24.10;99.90
44271;DHT22;29963;44.594;11.368;2023-07-29T04:14:52;24.10;99.90
44271;DHT22;29963;44.594;11.368;2023-07-29T04:17:18;24.10;99.90
44271;DHT22;29963;44.594;11.368;2023-07-29T04:19:43;24.00;99.90
44271;DHT22;29963;44.594;11.368;2023-07-29T04:22:09;24.00;99.90
44271;DHT22;29963;44.594;11.368;2023-07-29T04:24:35;23.80;99.90
44271;DHT22;29963;44.594;11.368;2023-07-29T04:27:00;23.80;99.90
44271;DHT22;29963;44.594;11.368;2023-07-29T04:29:26;23.80;99.90
44271;DHT22;29963;44.594;11.368;2023-07-29T04:31:52;23.70;99.90
44271;DHT22;29963;44.594;11.368;2023-07-29T04:34:18;23.70;99.90
44271;DHT22;29963;44.594;11.368;2023-07-29T04:36:45;23.70;99.90
44271;DHT22;29963;44.594;11.368;2023-07-29T04:39:11;23.70;99.90
44271;DHT22;29963;44.594;11.368;2023-07-29T04:41:36;23.70;99.90
44271;DHT22;29963;44.594;11.368;2023-07-29T04:44:02;23.80;99.90
44271;DHT22;29963;44.594;11.368;2023-07-29T04:46:28;23.90;99.90
44271;DHT22;29963;44.594;11.368;2023-07-29T04:48:53;23.90;99.90
44271;DHT22;29963;44.594;11.368;2023-07-29T04:51:19;24.00;99.90
44271;DHT22;29963;44.594;11.368;2023-07-29T04:53:44;23.90;99.90
44271;DHT22;29963;44.594;11.368;2023-07-29T04:56:10;24.00;99.90
44271;DHT22;29963;44.594;11.368;2023-07-29T04:58:36;24.00;99.90
44271;DHT22;29963;44.594;11.368;2023-07-29T05:01:03;24.10;99.90
44271;DHT22;29963;44.594;11.368;2023-07-29T05:03:29;24.20;99.90
44271;DHT22;29963;44.594;11.368;2023-07-29T05:05:54;24.20;99.90
44271;DHT22;29963;44.594;11.368;2023-07-29T05:08:21;24.30;99.90
44271;DHT22;29963;44.594;11.368;2023-07-29T05:10:51;24.40;99.90
44271;DHT22;29963;44.594;11.368;2023-07-29T05:13:18;24.40;99.90
44271;DHT22;29963;44.594;11.368;2023-07-29T05:15:44;24.40;99.90
44271;DHT22;29963;44.594;11.368;2023-07-29T05:18:10;24.50;99.90
44271;DHT22;29963;44.594;11.368;2023-07-29T05:20:35;24.50;99.90
44271;DHT22;29963;44.594;11.368;2023-07-29T05:23:01;24.60;99.90
44271;DHT22;29963;44.594;11.368;2023-07-29T05:25:27;24.50;99.90
44271;DHT22;29963;44.594;11.368;2023-07-29T05:27:53;24.60;99.90
44271;DHT22;29963;44.594;11.368;2023-07-29T05:30:18;24.60;99.90
44271;DHT22;29963;44.594;11.368;2023-07-29T05:32:44;24.60;99.90
44271;DHT22;29963;44.594;11.368;2023-07-29T05:35:10;24.00;99.90
44271;DHT22;29963;44.594;11.368;2023-07-29T05:37:38;24.60;99.90
44271;DHT22;29963;44.594;11.368;2023-07-29T05:40:05;24.50;99.90
44271;DHT22;29963;44.594;11.368;2023-07-29T05:42:31;24.50;99.90
44271;DHT22;29963;44.594;11.368;2023-07-29T05:44:56;24.60;99.90
44271;DHT22;29963;44.594;11.368;2023-07-29T05:47:22;24.60;99.90
44271;DHT22;29963;44.594;11.368;2023-07-29T05:49:47;24.70;99.90
44271;DHT22;29963;44.594;11.368;2023-07-29T05:52:13;24.70;99.90
44271;DHT22;29963;44.594;11.368;2023-07-29T05:54:39;24.70;99.90
44271;DHT22;29963;44.594;11.368;2023-07-29T05:57:04;24.70;99.90
44271;DHT22;29963;44.594;11.368;2023-07-29T05:59:30;24.70;99.90
44271;DHT22;29963;44.594;11.368;2023-07-29T06:01:56;24.70;99.90
44271;DHT22;29963;44.594;11.368;2023-07-29T06:04:21;24.70;99.90
44271;DHT22;29963;44.594;11.368;2023-07-29T06:06:47;24.70;99.90
44271;DHT22;29963;44.594;11.368;2023-07-29T06:09:13;24.70;99.90
44271;DHT22;29963;44.594;11.368;2023-07-29T06:11:38;24.80;99.90
44271;DHT22;29963;44.594;11.368;2023-07-29T06:14:04;24.80;99.90
44271;DHT22;29963;44.594;11.368;2023-07-29T06:16:29;24.90;99.90
44271;DHT22;29963;44.594;11.368;2023-07-29T06:18:55;24.90;99.90
44271;DHT22;29963;44.594;11.368;2023-07-29T06:21:20;24.90;99.90
44271;DHT22;29963;44.594;11.368;2023-07-29T06:23:47;25.10;99.90
44271;DHT22;29963;44.594;11.368;2023-07-29T06:26:13;25.20;99.90
44271;DHT22;29963;44.594;11.368;2023-07-29T06:28:38;25.20;99.90
44271;DHT22;29963;44.594;11.368;2023-07-29T06:31:04;25.30;99.90
44271;DHT22;29963;44.594;11.368;2023-07-29T06:33:30;25.30;99.90
44271;DHT22;29963;44.594;11.368;2023-07-29T06:35:55;25.40;99.90
44271;DHT22;29963;44.594;11.368;2023-07-29T06:38:21;25.50;99.90
44271;DHT22;29963;44.594;11.368;2023-07-29T06:40:50;25.50;99.90
44271;DHT22;29963;44.594;11.368;2023-07-29T06:43:16;25.60;99.90
44271;DHT22;29963;44.594;11.368;2023-07-29T06:45:42;25.60;99.90
44271;DHT22;29963;44.594;11.368;2023-07-29T06:48:08;25.60;99.90
44271;DHT22;29963;44.594;11.368;2023-07-29T06:50:34;25.70;99.90
44271;DHT22;29963;44.594;11.368;2023-07-29T06:52:59;25.70;99.90
44271;DHT22;29963;44.594;11.368;2023-07-29T06:55:25;25.80;99.90
44271;DHT22;29963;44.594;11.368;2023-07-29T06:57:50;25.80;99.90
44271;DHT22;29963;44.594;11.368;2023-07-29T07:00:16;25.90;99.90
44271;DHT22;29963;44.594;11.368;2023-07-29T07:02:42;25.80;99.90
44271;DHT22;29963;44.594;11.368;2023-07-29T07:05:07;25.90;99.90
44271;DHT22;29963;44.594;11.368;2023-07-29T07:07:33;26.00;99.90
44271;DHT22;29963;44.594;11.368;2023-07-29T07:09:59;26.00;99.90
44271;DHT22;29963;44.594;11.368;2023-07-29T07:12:24;26.00;99.90
44271;DHT22;29963;44.594;11.368;2023-07-29T07:14:50;26.00;99.90
44271;DHT22;29963;44.594;11.368;2023-07-29T07:17:16;26.10;99.90
44271;DHT22;29963;44.594;11.368;2023-07-29T07:19:41;26.20;99.90
44271;DHT22;29963;44.594;11.368;2023-07-29T07:22:07;26.30;99.90
44271;DHT22;29963;44.594;11.368;2023-07-29T07:24:32;26.30;99.90
44271;DHT22;29963;44.594;11.368;2023-07-29T07:26:58;26.30;99.90
44271;DHT22;29963;44.594;11.368;2023-07-29T07:29:23;26.40;99.90
44271;DHT22;29963;44.594;11.368;2023-07-29T07:31:53;26.50;99.90
44271;DHT22;29963;44.594;11.368;2023-07-29T07:34:20;26.60;99.90
44271;DHT22;29963;44.594;11.368;2023-07-29T07:36:45;26.60;99.90
44271;DHT22;29963;44.594;11.368;2023-07-29T07:39:11;26.70;99.90
44271;DHT22;29963;44.594;11.368;2023-07-29T07:41:37;26.70;99.90
44271;DHT22;29963;44.594;11.368;2023-07-29T07:44:03;26.70;99.90
44271;DHT22;29963;44.594;11.368;2023-07-29T07:46:28;26.70;99.90
44271;DHT22;29963;44.594;11.368;2023-07-29T07:48:54;26.80;99.90
44271;DHT22;29963;44.594;11.368;2023-07-29T07:51:20;26.80;99.90
44271;DHT22;29963;44.594;11.368;2023-07-29T07:53:45;26.90;99.90
44271;DHT22;29963;44.594;11.368;2023-07-29T07:56:11;27.00;99.90
44271;DHT22;29963;44.594;11.368;2023-07-29T07:58:37;27.00;99.90
44271;DHT22;29963;44.594;11.368;2023-07-29T08:01:07;27.00;99.90
44271;DHT22;29963;44.594;11.368;2023-07-29T08:03:33;27.10;99.90
44271;DHT22;29963;44.594;11.368;2023-07-29T08:05:59;27.20;99.90
44271;DHT22;29963;44.594;11.368;2023-07-29T08:08:26;27.20;99.90
44271;DHT22;29963;44.594;11.368;2023-07-29T08:10:56;27.20;99.90
44271;DHT22;29963;44.594;11.368;2023-07-29T08:13:25;27.20;99.90
44271;DHT22;29963;44.594;11.368;2023-07-29T08:15:52;27.10;99.90
44271;DHT22;29963;44.594;11.368;2023-07-29T08:18:18;27.10;99.90
44271;DHT22;29963;44.594;11.368;2023-07-29T08:20:54;27.10;99.90
44271;DHT22;29963;44.594;11.368;2023-07-29T08:23:21;27.10;99.90
44271;DHT22;29963;44.594;11.368;2023-07-29T08:25:54;27.10;99.90
44271;DHT22;29963;44.594;11.368;2023-07-29T08:28:22;27.30;99.90
44271;DHT22;29963;44.594;11.368;2023-07-29T08:30:48;27.30;99.90
44271;DHT22;29963;44.594;11.368;2023-07-29T08:33:14;27.20;99.90
44271;DHT22;29963;44.594;11.368;2023-07-29T08:35:39;27.20;99.90
44271;DHT22;29963;44.594;11.368;2023-07-29T08:38:05;27.20;99.90
44271;DHT22;29963;44.594;11.368;2023-07-29T08:40:32;27.40;99.90
44271;DHT22;29963;44.594;11.368;2023-07-29T08:43:03;27.50;99.90
44271;DHT22;29963;44.594;11.368;2023-07-29T08:45:31;27.50;99.90
44271;DHT22;29963;44.594;11.368;2023-07-29T08:47:59;27.60;99.90
44271;DHT22;29963;44.594;11.368;2023-07-29T08:50:28;27.60;99.90
44271;DHT22;29963;44.594;11.368;2023-07-29T08:52:56;27.70;99.90
44271;DHT22;29963;44.594;11.368;2023-07-29T08:55:21;27.60;99.90
44271;DHT22;29963;44.594;11.368;2023-07-29T08:57:47;27.70;99.90
44271;DHT22;29963;44.594;11.368;2023-07-29T09:00:13;27.90;99.90
44271;DHT22;29963;44.594;11.368;2023-07-29T09:02:39;28.00;99.90
44271;DHT22;29963;44.594;11.368;2023-07-29T09:05:04;28.10;99.90
44271;DHT22;29963;44.594;11.368;2023-07-29T09:07:31;28.10;99.90
44271;DHT22;29963;44.594;11.368;2023-07-29T09:09:59;28.10;99.90
44271;DHT22;29963;44.594;11.368;2023-07-29T09:12:25;28.00;99.90
44271;DHT22;29963;44.594;11.368;2023-07-29T09:14:53;28.10;99.90
44271;DHT22;29963;44.594;11.368;2023-07-29T09:17:20;28.10;99.90
44271;DHT22;29963;44.594;11.368;2023-07-29T09:19:50;28.00;99.90
44271;DHT22;29963;44.594;11.368;2023-07-29T09:22:20;28.10;99.90
44271;DHT22;29963;44.594;11.368;2023-07-29T09:24:50;28.10;99.90
44271;DHT22;29963;44.594;11.368;2023-07-29T09:27:26;28.20;99.90
44271;DHT22;29963;44.594;11.368;2023-07-29T09:29:53;28.10;99.90
44271;DHT22;29963;44.594;11.368;2023-07-29T09:32:24;28.20;99.90
44271;DHT22;29963;44.594;11.368;2023-07-29T09:34:50;28.20;99.90
44271;DHT22;29963;44.594;11.368;2023-07-29T09:37:21;28.20;99.90
44271;DHT22;29963;44.594;11.368;2023-07-29T09:39:47;28.30;99.90
44271;DHT22;29963;44.594;11.368;2023-07-29T09:42:20;28.30;99.90
44271;DHT22;29963;44.594;11.368;2023-07-29T09:44:48;28.40;99.90
44271;DHT22;29963;44.594;11.368;2023-07-29T09:47:25;28.50;99.90
44271;DHT22;29963;44.594;11.368;2023-07-29T09:49:51;28.60;99.90
44271;DHT22;29963;44.594;11.368;2023-07-29T09:52:17;28.60;99.90
44271;DHT22;29963;44.594;11.368;2023-07-29T09:54:44;28.70;99.90
44271;DHT22;29963;44.594;11.368;2023-07-29T09:57:11;28.80;99.90
44271;DHT22;29963;44.594;11.368;2023-07-29T09:59:38;28.90;99.90
44271;DHT22;29963;44.594;11.368;2023-07-29T10:02:04;29.00;99.90
44271;DHT22;29963;44.594;11.368;2023-07-29T10:04:30;28.90;99.90
44271;DHT22;29963;44.594;11.368;2023-07-29T10:06:57;29.00;99.90
44271;DHT22;29963;44.594;11.368;2023-07-29T10:09:23;29.00;99.90
44271;DHT22;29963;44.594;11.368;2023-07-29T10:11:49;29.10;99.90
44271;DHT22;29963;44.594;11.368;2023-07-29T10:14:16;29.10;99.90
44271;DHT22;29963;44.594;11.368;2023-07-29T10:16:43;29.10;99.90
44271;DHT22;29963;44.594;11.368;2023-07-29T10:19:11;29.20;99.90
44271;DHT22;29963;44.594;11.368;2023-07-29T10:21:39;29.30;99.90
44271;DHT22;29963;44.594;11.368;2023-07-29T10:24:09;29.30;99.90
44271;DHT22;29963;44.594;11.368;2023-07-29T10:26:37;29.30;99.90
44271;DHT22;29963;44.594;11.368;2023-07-29T10:29:04;29.20;99.90
44271;DHT22;29963;44.594;11.368;2023-07-29T10:31:34;29.30;99.90
44271;DHT22;29963;44.594;11.368;2023-07-29T10:34:01;29.40;99.90
44271;DHT22;29963;44.594;11.368;2023-07-29T10:36:28;29.40;99.90
44271;DHT22;29963;44.594;11.368;2023-07-29T10:38:54;29.50;99.90
44271;DHT22;29963;44.594;11.368;2023-07-29T10:41:19;29.40;99.90
44271;DHT22;29963;44.594;11.368;2023-07-29T10:43:45;29.30;99.90
44271;DHT22;29963;44.594;11.368;2023-07-29T10:46:18;29.40;99.90
44271;DHT22;29963;44.594;11.368;2023-07-29T10:48:53;29.40;99.90
44271;DHT22;29963;44.594;11.368;2023-07-29T10:51:29;29.50;99.90
44271;DHT22;29963;44.594;11.368;2023-07-29T10:56:34;29.60;99.50
44271;DHT22;29963;44.594;11.368;2023-07-29T11:01:42;29.70;99.90
44271;DHT22;29963;44.594;11.368;2023-07-29T11:12:46;30.00;99.90
44271;DHT22;29963;44.594;11.368;2023-07-29T11:15:14;30.10;99.90
44271;DHT22;29963;44.594;11.368;2023-07-29T11:20:15;30.10;99.90
44271;DHT22;29963;44.594;11.368;2023-07-29T11:22:41;30.10;99.90
44271;DHT22;29963;44.594;11.368;2023-07-29T11:25:09;30.10;99.90
44271;DHT22;29963;44.594;11.368;2023-07-29T11:27:36;30.10;99.90
44271;DHT22;29963;44.594;11.368;2023-07-29T11:30:06;30.10;99.90
44271;DHT22;29963;44.594;11.368;2023-07-29T11:32:32;30.00;99.90
44271;DHT22;29963;44.594;11.368;2023-07-29T11:35:13;29.60;99.90
44271;DHT22;29963;44.594;11.368;2023-07-29T11:37:40;30.10;99.90
44271;DHT22;29963;44.594;11.368;2023-07-29T11:40:07;30.10;99.40
44271;DHT22;29963;44.594;11.368;2023-07-29T11:42:34;30.20;99.30
44271;DHT22;29963;44.594;11.368;2023-07-29T11:45:01;30.30;99.20
44271;DHT22;29963;44.594;11.368;2023-07-29T11:47:27;30.40;98.80
44271;DHT22;29963;44.594;11.368;2023-07-29T11:49:53;30.50;99.00
44271;DHT22;29963;44.594;11.368;2023-07-29T11:52:19;30.60;98.70
44271;DHT22;29963;44.594;11.368;2023-07-29T11:54:47;30.70;98.50
44271;DHT22;29963;44.594;11.368;2023-07-29T11:57:13;30.80;97.80
44271;DHT22;29963;44.594;11.368;2023-07-29T11:59:40;30.70;97.70
44271;DHT22;29963;44.594;11.368;2023-07-29T12:02:12;30.70;97.70
44271;DHT22;29963;44.594;11.368;2023-07-29T12:04:39;30.80;96.90
44271;DHT22;29963;44.594;11.368;2023-07-29T12:07:05;30.80;97.30
44271;DHT22;29963;44.594;11.368;2023-07-29T12:09:31;30.80;97.30
44271;DHT22;29963;44.594;11.368;2023-07-29T12:11:57;30.90;97.70
44271;DHT22;29963;44.594;11.368;2023-07-29T12:14:29;31.00;97.70
44271;DHT22;29963;44.594;11.368;2023-07-29T12:16:54;31.10;97.80
44271;DHT22;29963;44.594;11.368;2023-07-29T12:19:20;31.20;97.80
44271;DHT22;29963;44.594;11.368;2023-07-29T12:21:48;31.30;97.70
44271;DHT22;29963;44.594;11.368;2023-07-29T12:24:14;31.40;97.60
44271;DHT22;29963;44.594;11.368;2023-07-29T12:26:41;31.50;97.20
44271;DHT22;29963;44.594;11.368;2023-07-29T12:29:14;31.60;96.90
44271;DHT22;29963;44.594;11.368;2023-07-29T12:31:40;31.60;96.50
44271;DHT22;29963;44.594;11.368;2023-07-29T12:34:05;31.60;96.10
44271;DHT22;29963;44.594;11.368;2023-07-29T12:36:45;31.60;95.70
44271;DHT22;29963;44.594;11.368;2023-07-29T12:39:28;31.70;94.90
44271;DHT22;29963;44.594;11.368;2023-07-29T12:41:55;31.70;94.70
44271;DHT22;29963;44.594;11.368;2023-07-29T12:44:23;31.60;94.60
44271;DHT22;29963;44.594;11.368;2023-07-29T12:46:49;31.60;94.80
44271;DHT22;29963;44.594;11.368;2023-07-29T12:49:14;31.60;94.90
44271;DHT22;29963;44.594;11.368;2023-07-29T12:51:40;31.50;95.00
44271;DHT22;29963;44.594;11.368;2023-07-29T12:54:06;31.60;95.10
44271;DHT22;29963;44.594;11.368;2023-07-29T12:56:32;31.60;95.20
44271;DHT22;29963;44.594;11.368;2023-07-29T12:58:58;31.70;95.30
44271;DHT22;29963;44.594;11.368;2023-07-29T13:01:25;31.90;94.60
44271;DHT22;29963;44.594;11.368;2023-07-29T13:03:51;32.00;94.30
44271;DHT22;29963;44.594;11.368;2023-07-29T13:06:16;32.10;94.10
44271;DHT22;29963;44.594;11.368;2023-07-29T13:08:43;32.20;93.90
44271;DHT22;29963;44.594;11.368;2023-07-29T13:11:09;32.20;94.00
44271;DHT22;29963;44.594;11.368;2023-07-29T13:13:35;32.30;93.60
44271;DHT22;29963;44.594;11.368;2023-07-29T13:16:00;32.10;93.50
44271;DHT22;29963;44.594;11.368;2023-07-29T13:18:26;32.30;93.30
44271;DHT22;29963;44.594;11.368;2023-07-29T13:20:52;32.20;93.60
44271;DHT22;29963;44.594;11.368;2023-07-29T13:23:18;32.20;93.70
44271;DHT22;29963;44.594;11.368;2023-07-29T13:25:43;32.20;93.70
44271;DHT22;29963;44.594;11.368;2023-07-29T13:28:10;32.30;93.70
44271;DHT22;29963;44.594;11.368;2023-07-29T13:30:36;32.40;93.80
44271;DHT22;29963;44.594;11.368;2023-07-29T13:33:02;32.40;94.00
44271;DHT22;29963;44.594;11.368;2023-07-29T13:35:29;32.60;94.10
44271;DHT22;29963;44.594;11.368;2023-07-29T13:37:55;32.80;93.80
44271;DHT22;29963;44.594;11.368;2023-07-29T13:40:21;32.90;93.80
44271;DHT22;29963;44.594;11.368;2023-07-29T13:42:47;33.10;93.50
44271;DHT22;29963;44.594;11.368;2023-07-29T13:45:12;33.20;92.60
44271;DHT22;29963;44.594;11.368;2023-07-29T13:47:38;33.20;92.50
44271;DHT22;29963;44.594;11.368;2023-07-29T13:50:04;33.30;92.80
44271;DHT22;29963;44.594;11.368;2023-07-29T13:52:29;33.30;92.60
44271;DHT22;29963;44.594;11.368;2023-07-29T13:54:55;33.40;92.60
44271;DHT22;29963;44.594;11.368;2023-07-29T13:57:21;33.50;92.40
44271;DHT22;29963;44.594;11.368;2023-07-29T13:59:46;33.60;91.70
44271;DHT22;29963;44.594;11.368;2023-07-29T14:02:12;33.50;91.80
44271;DHT22;29963;44.594;11.368;2023-07-29T14:04:38;33.50;91.80
44271;DHT22;29963;44.594;11.368;2023-07-29T14:07:03;33.50;92.10
44271;DHT22;29963;44.594;11.368;2023-07-29T14:09:29;33.70;92.00
44271;DHT22;29963;44.594;11.368;2023-07-29T14:11:55;33.90;91.40
44271;DHT22;29963;44.594;11.368;2023-07-29T14:14:20;34.00;91.20
44271;DHT22;29963;44.594;11.368;2023-07-29T14:16:46;34.20;91.30
44271;DHT22;29963;44.594;11.368;2023-07-29T14:19:12;34.30;91.00
44271;DHT22;29963;44.594;11.368;2023-07-29T14:21:38;34.40;90.90
44271;DHT22;29963;44.594;11.368;2023-07-29T14:24:04;34.60;90.50
44271;DHT22;29963;44.594;11.368;2023-07-29T14:26:29;34.70;90.50
44271;DHT22;29963;44.594;11.368;2023-07-29T14:28:55;34.80;90.40
44271;DHT22;29963;44.594;11.368;2023-07-29T14:31:21;34.80;90.10
44271;DHT22;29963;44.594;11.368;2023-07-29T14:33:47;34.70;90.00
44271;DHT22;29963;44.594;11.368;2023-07-29T14:36:15;34.70;90.20
44271;DHT22;29963;44.594;11.368;2023-07-29T14:38:41;34.90;90.20
44271;DHT22;29963;44.594;11.368;2023-07-29T14:41:06;35.00;89.10
44271;DHT22;29963;44.594;11.368;2023-07-29T14:43:32;35.10;89.40
44271;DHT22;29963;44.594;11.368;2023-07-29T14:45:58;35.30;89.20
44271;DHT22;29963;44.594;11.368;2023-07-29T14:48:23;35.40;88.80
44271;DHT22;29963;44.594;11.368;2023-07-29T14:50:49;35.50;87.10
44271;DHT22;29963;44.594;11.368;2023-07-29T14:53:15;35.50;86.40
44271;DHT22;29963;44.594;11.368;2023-07-29T14:55:40;35.50;87.00
44271;DHT22;29963;44.594;11.368;2023-07-29T14:58:06;35.50;87.20
44271;DHT22;29963;44.594;11.368;2023-07-29T15:00:31;35.40;86.90
44271;DHT22;29963;44.594;11.368;2023-07-29T15:02:58;35.50;88.80
44271;DHT22;29963;44.594;11.368;2023-07-29T15:05:24;35.80;89.20
44271;DHT22;29963;44.594;11.368;2023-07-29T15:07:49;36.10;87.30
44271;DHT22;29963;44.594;11.368;2023-07-29T15:10:16;36.40;85.90
44271;DHT22;29963;44.594;11.368;2023-07-29T15:12:42;36.70;85.80
44271;DHT22;29963;44.594;11.368;2023-07-29T15:15:09;36.90;84.10
44271;DHT22;29963;44.594;11.368;2023-07-29T15:17:34;37.10;83.80
44271;DHT22;29963;44.594;11.368;2023-07-29T15:20:01;37.40;84.50
44271;DHT22;29963;44.594;11.368;2023-07-29T15:22:27;37.70;83.40
44271;DHT22;29963;44.594;11.368;2023-07-29T15:24:53;37.90;81.00
44271;DHT22;29963;44.594;11.368;2023-07-29T15:27:18;38.00;80.00
44271;DHT22;29963;44.594;11.368;2023-07-29T15:29:44;38.20;78.30